createdAt,value
2023-01-03T07:06:38.759Z,7.33
2023-01-03T07:16:45.454Z,7.09
2023-01-03T07:26:49.271Z,7.05
2023-01-03T07:36:52.964Z,6.85
2023-01-03T07:46:56.645Z,6.57
2023-01-03T07:57:00.823Z,6.25
2023-01-03T08:07:04.382Z,6.13
2023-01-03T08:17:08.069Z,6.10
2023-01-03T08:33:04.237Z,6.17
2023-01-03T08:43:08.476Z,6.16
2023-01-03T08:53:12.106Z,6.18
2023-01-03T09:03:15.948Z,6.24
2023-01-03T09:13:21.801Z,6.33
2023-01-03T09:23:25.507Z,6.40
2023-01-03T09:33:29.283Z,6.46
2023-01-03T09:43:41.400Z,6.46
2023-01-03T09:54:03.809Z,6.54
2023-01-03T10:04:30.532Z,6.69
2023-01-03T10:14:37.146Z,6.69
2023-01-03T10:24:46.551Z,6.79
2023-01-03T10:35:02.427Z,6.79
2023-01-03T10:45:15.083Z,6.74
2023-01-03T10:55:21.225Z,6.76
2023-01-03T11:05:27.443Z,6.80
2023-01-03T11:15:37.625Z,6.89
2023-01-03T11:26:01.010Z,6.94
2023-01-03T11:36:27.485Z,6.94
2023-01-03T11:46:34.315Z,6.97
2023-01-03T11:56:44.872Z,6.88
2023-01-03T12:06:49.619Z,6.89
2023-01-03T12:17:04.827Z,6.92
2023-01-03T12:27:17.614Z,7.00
2023-01-03T12:37:30.984Z,6.93
2023-01-03T12:47:42.747Z,6.85
2023-01-03T12:58:15.299Z,6.76
2023-01-03T13:08:34.535Z,6.60
2023-01-03T13:18:38.311Z,6.57
2023-01-03T13:28:42.247Z,6.56
2023-01-03T13:38:46.527Z,6.48
2023-01-03T13:49:09.224Z,6.39
2023-01-03T13:59:16.001Z,6.27
2023-01-03T14:09:40.798Z,6.19
2023-01-03T14:19:51.516Z,6.08
2023-01-03T14:29:56.209Z,6.03
2023-01-03T14:40:06.944Z,5.94
2023-01-03T14:50:20.160Z,5.96
2023-01-03T15:00:32.537Z,5.99
2023-01-03T15:11:00.886Z,5.97
2023-01-03T15:21:06.757Z,5.85
2023-01-03T15:31:22.777Z,5.78
2023-01-03T15:42:06.407Z,5.79
2023-01-03T15:52:16.131Z,5.83
2023-01-03T16:02:21.571Z,5.91
2023-01-03T16:12:33.227Z,5.86
2023-01-03T16:22:38.465Z,5.77
2023-01-03T16:32:44.770Z,5.72
2023-01-03T16:42:51.015Z,5.71
2023-01-03T16:52:57.354Z,5.77
2023-01-03T17:03:01.820Z,5.75
2023-01-03T17:13:30.059Z,5.67
2023-01-03T17:23:38.314Z,5.62
2023-01-03T17:33:42.469Z,5.57
2023-01-03T17:43:46.516Z,5.46
2023-01-03T17:53:51.920Z,5.26
2023-01-03T18:03:55.972Z,5.15
2023-01-03T18:13:59.937Z,5.09
2023-01-03T18:24:27.894Z,5.07
2023-01-03T18:34:31.493Z,5.00
2023-01-03T18:44:36.531Z,5.06
2023-01-03T18:54:40.146Z,5.08
2023-01-03T19:04:49.210Z,5.19
2023-01-03T19:14:54.921Z,5.14
2023-01-03T19:25:04.906Z,4.67
2023-01-03T19:35:16.254Z,4.43
2023-01-03T19:45:20.005Z,4.24
2023-01-03T19:55:27.891Z,4.13
2023-01-03T20:05:37.045Z,4.05
2023-01-03T20:15:43.963Z,4.14
2023-01-03T20:25:50.711Z,4.32
2023-01-03T20:36:11.588Z,4.45
2023-01-03T20:46:22.803Z,4.59
2023-01-03T20:56:28.064Z,4.73
2023-01-03T21:06:34.957Z,4.83
2023-01-03T21:16:46.722Z,4.85
2023-01-03T21:26:51.028Z,4.90
2023-01-03T21:36:55.748Z,4.87
2023-01-03T21:46:59.270Z,4.84
2023-01-03T21:57:04.047Z,4.75
2023-01-03T22:07:07.663Z,4.72
2023-01-03T22:17:11.326Z,4.59
2023-01-03T22:27:15.057Z,4.48
2023-01-03T22:37:19.127Z,4.34
2023-01-03T22:47:24.833Z,4.41
2023-01-03T22:57:28.411Z,4.37
2023-01-03T23:07:32.150Z,4.45
2023-01-03T23:17:54.520Z,4.37
2023-01-03T23:27:59.341Z,4.40
2023-01-03T23:38:03.442Z,4.36
2023-01-03T23:48:07.081Z,4.44
2023-01-03T23:58:10.933Z,4.62
